SBBRYZYX KWBCYMYX SOZZMAMX SYZZMAMX TBPBYMYX TNCCYMYX

TNCAYMYX TFFFYMYX TFFRYMYX TTPPYMYX EGZZMNAM

241000 SMJPYMYX

FTSM20 SMJP 241000

TAF SMJP 241000Z 2412/2512 08014KT 9999 BKN018 TX32/2418Z TN23/2510Z TEMPO 2418/2422 VRB12G24KT 4000 TSRA FEW015CB SCT020 FM250100 07003KT CAVOK BECMG 2507/2508 0800 FG BKN003=

 

 

TAF SMZO 241000Z 2126/2512 09014KT 9999 SCT018 TX32/2418Z TN25/2510Z TEMPO 2418/2421 4000 TSRA FEW015CB SCT020 BECMG 2500/2502 09003KT=

 

 

NOVEMBER 24, 2014

TW